createdAt,value
2019-01-31T00:01:30.250Z,40.43
2019-01-31T00:04:23.501Z,34.23
2019-01-31T00:07:19.892Z,35.40
2019-01-31T00:10:36.384Z,36.30
2019-01-31T00:13:42.487Z,36.43
2019-01-31T00:16:43.763Z,41.00
2019-01-31T00:19:47.449Z,35.47
2019-01-31T00:22:46.811Z,34.90
2019-01-31T00:25:41.818Z,35.27
2019-01-31T00:28:41.928Z,36.93
2019-01-31T00:31:51.209Z,36.60
2019-01-31T00:34:51.427Z,35.97
2019-01-31T00:37:39.982Z,38.73
2019-01-31T00:40:39.935Z,37.97
2019-01-31T00:43:41.273Z,40.83
2019-01-31T00:46:44.357Z,38.87
2019-01-31T00:49:34.949Z,39.80
2019-01-31T00:53:01.141Z,35.27
2019-01-31T00:56:01.368Z,37.97
2019-01-31T00:59:06.851Z,36.53
2019-01-31T01:02:08.951Z,37.83
2019-01-31T01:05:32.064Z,36.40
2019-01-31T01:08:26.477Z,36.03
2019-01-31T01:11:33.269Z,38.40
2019-01-31T01:14:43.622Z,39.30
2019-01-31T01:17:40.461Z,39.00
2019-01-31T01:20:34.107Z,38.83
2019-01-31T01:23:28.396Z,39.90
2019-01-31T01:26:29.604Z,41.17
2019-01-31T01:29:32.434Z,41.53
2019-01-31T01:32:26.270Z,40.57
2019-01-31T01:35:34.095Z,41.37
2019-01-31T01:38:16.127Z,42.67
2019-01-31T01:41:38.408Z,41.43
2019-01-31T01:44:18.123Z,41.73
2019-01-31T01:47:03.872Z,40.13
2019-01-31T01:49:47.547Z,42.67
2019-01-31T01:53:02.178Z,43.80
2019-01-31T01:55:51.904Z,45.53
2019-01-31T01:58:41.925Z,43.53
2019-01-31T02:01:36.308Z,42.83
2019-01-31T02:04:18.021Z,40.00
2019-01-31T02:07:14.050Z,42.83
2019-01-31T02:10:33.955Z,44.37
2019-01-31T02:13:33.717Z,42.10
2019-01-31T02:16:42.311Z,46.70
2019-01-31T02:19:55.914Z,46.50
2019-01-31T02:23:25.551Z,50.83
2019-01-31T02:26:46.954Z,51.67
2019-01-31T02:29:40.851Z,53.90
2019-01-31T02:32:45.124Z,55.13
2019-01-31T02:36:06.858Z,53.23
2019-01-31T02:39:05.814Z,52.73
2019-01-31T02:42:03.351Z,56.60
2019-01-31T02:45:16.765Z,57.70
2019-01-31T02:48:29.190Z,59.47
2019-01-31T02:51:26.957Z,56.10
2019-01-31T02:54:28.388Z,50.60
2019-01-31T02:57:40.724Z,52.20
2019-01-31T03:00:37.306Z,52.30
2019-01-31T03:03:46.289Z,54.67
2019-01-31T03:06:52.924Z,50.47
2019-01-31T03:09:54.863Z,52.60
2019-01-31T03:12:52.477Z,49.50
2019-01-31T03:15:39.208Z,57.83
2019-01-31T03:18:55.653Z,52.60
2019-01-31T03:22:17.324Z,52.57
2019-01-31T03:25:03.845Z,54.20
2019-01-31T03:28:14.547Z,56.40
2019-01-31T03:31:40.377Z,52.77
2019-01-31T03:34:56.679Z,54.47
2019-01-31T03:37:35.882Z,52.43
2019-01-31T03:40:29.367Z,50.57
2019-01-31T03:43:33.965Z,55.27
2019-01-31T03:46:27.518Z,51.23
2019-01-31T03:49:05.625Z,55.17
2019-01-31T03:52:16.551Z,54.23
2019-01-31T03:55:03.978Z,52.30
2019-01-31T03:58:01.797Z,55.40
2019-01-31T04:00:45.642Z,52.87
2019-01-31T04:03:27.789Z,51.87
2019-01-31T04:06:10.883Z,49.83
2019-01-31T04:08:40.323Z,51.87
2019-01-31T04:11:10.617Z,54.10
2019-01-31T04:13:40.016Z,52.33
2019-01-31T04:16:09.345Z,51.93
2019-01-31T04:18:38.820Z,50.67
2019-01-31T04:21:08.183Z,51.17
2019-01-31T04:23:37.844Z,60.17
2019-01-31T04:26:09.389Z,54.83
2019-01-31T04:28:39.397Z,52.93
2019-01-31T04:31:08.827Z,52.43
2019-01-31T04:33:38.432Z,55.30
2019-01-31T04:36:08.118Z,55.00
2019-01-31T04:38:37.998Z,51.67
2019-01-31T04:41:07.649Z,53.90
2019-01-31T04:43:37.137Z,55.53
2019-01-31T04:46:06.559Z,56.97
2019-01-31T04:48:36.189Z,53.10
2019-01-31T04:51:05.663Z,55.07
2019-01-31T04:53:35.178Z,50.40
2019-01-31T04:56:04.714Z,55.73
2019-01-31T04:58:34.495Z,53.67
2019-01-31T05:01:05.261Z,54.27
2019-01-31T05:03:34.608Z,51.30
2019-01-31T05:06:04.133Z,52.13
2019-01-31T05:08:33.851Z,53.83
2019-01-31T05:11:03.286Z,51.87
2019-01-31T05:13:32.775Z,49.07
2019-01-31T05:16:03.842Z,52.40
2019-01-31T05:18:33.893Z,52.10
2019-01-31T05:21:03.342Z,52.37
2019-01-31T05:23:32.857Z,50.60
2019-01-31T05:26:02.600Z,46.20
2019-01-31T05:28:32.063Z,51.87
2019-01-31T05:31:01.631Z,49.40
2019-01-31T05:33:31.079Z,50.17
2019-01-31T05:36:00.552Z,52.17
2019-01-31T05:38:30.007Z,50.57
2019-01-31T05:40:59.549Z,53.40
2019-01-31T05:43:29.426Z,49.27
2019-01-31T05:45:59.085Z,45.30
2019-01-31T05:48:28.467Z,53.03
2019-01-31T05:50:57.916Z,50.50
2019-01-31T05:53:27.596Z,45.00
2019-01-31T05:55:57.142Z,49.00
2019-01-31T05:58:26.807Z,42.33
2019-01-31T06:00:56.306Z,50.07
2019-01-31T06:03:25.837Z,45.27
2019-01-31T06:05:55.333Z,45.60
2019-01-31T06:08:24.806Z,46.47
2019-01-31T06:10:54.572Z,43.10
2019-01-31T06:13:24.027Z,44.43
2019-01-31T06:15:53.503Z,46.07
2019-01-31T06:18:23.213Z,56.67
2019-01-31T06:20:52.561Z,46.17
2019-01-31T06:23:22.035Z,47.47
2019-01-31T06:25:51.518Z,46.30
2019-01-31T06:28:21.455Z,50.13
2019-01-31T06:30:50.953Z,43.63
2019-01-31T06:33:20.977Z,46.23
2019-01-31T06:35:51.349Z,45.37
2019-01-31T06:38:21.175Z,43.63
2019-01-31T06:40:50.748Z,47.80
2019-01-31T06:43:20.201Z,50.17
2019-01-31T06:45:49.645Z,51.07
2019-01-31T06:48:19.092Z,47.27
2019-01-31T06:50:48.563Z,50.90
2019-01-31T06:53:18.067Z,48.87
2019-01-31T06:55:47.495Z,46.80
2019-01-31T06:58:16.937Z,47.90
2019-01-31T07:00:46.401Z,46.37
2019-01-31T07:03:15.897Z,44.30
2019-01-31T07:05:45.354Z,50.93
2019-01-31T07:08:14.827Z,46.43
2019-01-31T07:10:44.304Z,49.47
2019-01-31T07:13:13.732Z,48.20
2019-01-31T07:15:43.127Z,49.70
2019-01-31T07:18:13.040Z,45.77
2019-01-31T07:20:42.551Z,45.80
2019-01-31T07:23:11.971Z,45.63
2019-01-31T07:25:41.571Z,44.43
2019-01-31T07:28:11.050Z,42.30
2019-01-31T07:30:40.475Z,46.67
2019-01-31T07:33:09.985Z,42.50
2019-01-31T07:35:39.819Z,40.03
2019-01-31T07:38:09.256Z,41.57
2019-01-31T07:40:38.741Z,40.23
2019-01-31T07:43:08.182Z,42.60
2019-01-31T07:45:38.003Z,40.57
2019-01-31T07:48:07.479Z,43.23
2019-01-31T07:50:36.953Z,40.37
2019-01-31T07:53:06.523Z,41.33
2019-01-31T07:55:35.964Z,40.33
2019-01-31T07:58:05.855Z,39.20
2019-01-31T08:00:35.649Z,40.93
2019-01-31T08:03:05.481Z,41.77
2019-01-31T08:05:34.956Z,40.37
2019-01-31T08:08:04.873Z,43.20
2019-01-31T08:10:37.234Z,43.07
2019-01-31T08:13:06.984Z,40.43
2019-01-31T08:15:36.448Z,41.67
2019-01-31T08:18:06.148Z,39.03
2019-01-31T08:20:35.641Z,41.03
2019-01-31T08:23:05.335Z,40.87
2019-01-31T08:25:34.813Z,40.83
2019-01-31T08:28:05.502Z,39.10
2019-01-31T08:30:37.849Z,38.53
2019-01-31T08:33:07.901Z,38.53
2019-01-31T08:35:37.560Z,37.17
2019-01-31T08:38:07.067Z,36.60
2019-01-31T08:40:36.572Z,36.57
2019-01-31T08:43:06.091Z,39.17
2019-01-31T08:45:35.605Z,38.97
2019-01-31T08:48:05.436Z,37.60
2019-01-31T08:50:34.921Z,39.03
2019-01-31T08:53:04.537Z,37.97
2019-01-31T08:55:34.011Z,37.80
2019-01-31T08:58:03.476Z,36.47
2019-01-31T09:00:32.962Z,32.63
2019-01-31T09:03:02.375Z,34.47
2019-01-31T09:05:31.818Z,34.23
2019-01-31T09:08:01.253Z,34.83
2019-01-31T09:10:33.269Z,33.03
2019-01-31T09:13:05.122Z,32.57
2019-01-31T09:15:34.562Z,29.20
2019-01-31T09:18:04.149Z,32.40
2019-01-31T09:20:55.862Z,28.77
2019-01-31T09:24:02.465Z,33.23
2019-01-31T09:27:26.497Z,26.83
2019-01-31T09:30:28.892Z,28.53
2019-01-31T09:33:48.907Z,29.53
2019-01-31T09:36:48.181Z,26.90
2019-01-31T09:39:51.825Z,32.83
2019-01-31T09:42:45.375Z,30.23
2019-01-31T09:45:51.679Z,28.33
2019-01-31T09:48:46.045Z,30.70
2019-01-31T09:51:46.849Z,28.70
2019-01-31T09:54:25.943Z,29.73
2019-01-31T09:57:24.095Z,29.93
2019-01-31T10:00:36.864Z,31.10
2019-01-31T10:03:46.628Z,27.67
2019-01-31T10:06:36.709Z,27.47
2019-01-31T10:10:18.829Z,27.17
2019-01-31T10:13:13.036Z,29.90
2019-01-31T10:16:23.548Z,30.97
2019-01-31T10:19:19.464Z,27.83
2019-01-31T10:22:27.123Z,28.23
2019-01-31T10:25:41.018Z,30.60
2019-01-31T10:28:50.137Z,28.23
2019-01-31T10:32:19.444Z,30.77
2019-01-31T10:35:09.443Z,30.03
2019-01-31T10:37:53.427Z,28.03
2019-01-31T10:40:47.653Z,26.53
2019-01-31T10:47:48.779Z,28.63
2019-01-31T10:51:08.673Z,32.30
2019-01-31T10:54:25.671Z,29.53
2019-01-31T10:57:45.624Z,32.93
2019-01-31T11:00:44.818Z,33.27
2019-01-31T11:03:33.860Z,32.97
2019-01-31T11:06:42.642Z,33.07
2019-01-31T11:09:45.466Z,39.73
2019-01-31T11:13:00.256Z,45.27
2019-01-31T11:16:08.756Z,38.53
2019-01-31T11:19:15.821Z,38.60
2019-01-31T11:22:41.444Z,42.97
2019-01-31T11:26:13.323Z,42.37
2019-01-31T11:29:34.747Z,41.50
2019-01-31T11:32:54.135Z,44.20
2019-01-31T11:35:53.427Z,45.40
2019-01-31T11:38:48.243Z,47.60
2019-01-31T11:41:48.964Z,48.03
2019-01-31T11:45:29.947Z,51.33
2019-01-31T11:48:29.763Z,45.60
2019-01-31T11:51:52.107Z,51.33
2019-01-31T11:55:14.800Z,47.30
2019-01-31T11:58:25.527Z,44.40
2019-01-31T12:00:55.160Z,52.77
2019-01-31T12:03:25.067Z,46.87
2019-01-31T12:05:54.609Z,45.00
2019-01-31T12:08:24.053Z,43.87
2019-01-31T12:10:53.898Z,45.77
2019-01-31T12:13:23.900Z,40.40
2019-01-31T12:15:55.200Z,40.77
2019-01-31T12:18:24.761Z,40.70
2019-01-31T12:20:54.176Z,37.20
2019-01-31T12:23:23.981Z,39.60
2019-01-31T12:25:53.503Z,35.93
2019-01-31T12:28:22.949Z,36.23
2019-01-31T12:30:52.384Z,38.07
2019-01-31T12:33:21.858Z,41.07
2019-01-31T12:35:51.313Z,39.67
2019-01-31T12:38:20.774Z,42.30
2019-01-31T12:40:50.292Z,43.27
2019-01-31T12:43:19.894Z,44.37
2019-01-31T12:45:49.508Z,41.73
2019-01-31T12:48:18.943Z,42.53
2019-01-31T12:50:48.914Z,38.30
2019-01-31T12:53:18.543Z,40.67
2019-01-31T12:55:48.158Z,38.80
2019-01-31T12:58:17.738Z,36.60
2019-01-31T13:00:47.262Z,39.33
2019-01-31T13:03:16.766Z,36.83
2019-01-31T13:05:46.200Z,36.53
2019-01-31T13:08:15.681Z,38.13
2019-01-31T13:10:45.208Z,33.70
2019-01-31T13:13:14.866Z,35.87
2019-01-31T13:15:44.807Z,35.23
2019-01-31T13:18:14.355Z,31.67
2019-01-31T13:20:43.795Z,31.80
2019-01-31T13:23:13.309Z,35.10
2019-01-31T13:25:43.226Z,32.37
2019-01-31T13:28:12.708Z,31.67
2019-01-31T13:30:42.146Z,31.37
2019-01-31T13:33:11.634Z,32.00
2019-01-31T13:35:41.180Z,29.60
2019-01-31T13:38:10.790Z,32.00
2019-01-31T13:40:40.494Z,31.17
2019-01-31T13:43:09.911Z,28.43
2019-01-31T13:45:39.456Z,29.17
2019-01-31T13:48:27.184Z,27.10
2019-01-31T13:50:56.640Z,27.23
2019-01-31T13:53:26.151Z,26.50
2019-01-31T13:55:55.670Z,26.53
2019-01-31T13:58:25.279Z,27.73
2019-01-31T14:00:55.143Z,25.03
2019-01-31T14:03:24.710Z,24.07
2019-01-31T14:05:54.194Z,23.03
2019-01-31T14:08:23.656Z,25.23
2019-01-31T14:10:53.129Z,23.77
2019-01-31T14:13:22.621Z,23.70
2019-01-31T14:18:28.610Z,22.00
2019-01-31T14:20:58.106Z,20.67
2019-01-31T14:23:27.565Z,21.37
2019-01-31T14:25:57.123Z,20.70
2019-01-31T14:28:26.694Z,21.43
2019-01-31T14:30:56.148Z,22.77
2019-01-31T14:33:26.766Z,19.87
2019-01-31T14:35:58.743Z,20.00
2019-01-31T14:38:28.686Z,19.33
2019-01-31T14:40:58.484Z,16.93
2019-01-31T14:43:27.924Z,17.23
2019-01-31T14:45:57.681Z,17.47
2019-01-31T14:48:27.084Z,16.90
2019-01-31T14:50:56.557Z,18.37
2019-01-31T14:53:26.051Z,18.80
2019-01-31T14:55:55.734Z,17.43
2019-01-31T14:58:25.382Z,18.53
2019-01-31T15:00:54.804Z,16.53
2019-01-31T15:03:24.266Z,16.03
2019-01-31T15:05:53.809Z,15.80
2019-01-31T15:08:23.299Z,15.07
2019-01-31T15:10:52.730Z,15.93
2019-01-31T15:13:22.256Z,15.10
2019-01-31T15:15:51.737Z,15.53
2019-01-31T15:18:21.733Z,14.80
2019-01-31T15:20:51.182Z,15.67
2019-01-31T15:23:20.616Z,16.37
2019-01-31T15:25:50.104Z,16.63
2019-01-31T15:28:19.758Z,15.43
2019-01-31T15:30:49.255Z,18.03
2019-01-31T15:33:19.486Z,18.20
2019-01-31T15:35:48.969Z,19.83
2019-01-31T15:38:18.631Z,16.50
2019-01-31T15:40:49.370Z,18.33
2019-01-31T15:43:18.834Z,19.20
2019-01-31T15:45:48.254Z,17.63
2019-01-31T15:48:18.238Z,17.70
2019-01-31T15:50:47.684Z,18.63
2019-01-31T15:53:17.138Z,16.57
2019-01-31T15:55:46.612Z,15.97
2019-01-31T15:58:16.076Z,17.93
2019-01-31T16:00:51.031Z,18.63
2019-01-31T16:03:22.476Z,18.13
2019-01-31T16:05:52.523Z,16.87
2019-01-31T16:08:22.725Z,18.60
2019-01-31T16:10:52.191Z,16.47
2019-01-31T16:13:21.641Z,19.17
2019-01-31T16:15:51.195Z,18.07
2019-01-31T16:18:20.639Z,18.67
2019-01-31T16:20:50.450Z,16.50
2019-01-31T16:23:20.000Z,20.50
2019-01-31T16:25:49.456Z,18.03
2019-01-31T16:28:18.937Z,17.70
2019-01-31T16:30:48.462Z,18.87
2019-01-31T16:33:17.891Z,18.47
2019-01-31T16:35:48.547Z,16.13
2019-01-31T16:38:17.996Z,16.40
2019-01-31T16:40:47.508Z,17.13
2019-01-31T16:43:17.066Z,18.77
2019-01-31T16:45:46.646Z,17.90
2019-01-31T16:48:16.252Z,17.80
2019-01-31T16:50:45.988Z,14.67
2019-01-31T16:53:15.426Z,17.47
2019-01-31T16:55:44.880Z,19.23
2019-01-31T16:58:14.446Z,15.70
2019-01-31T17:00:44.029Z,15.97
2019-01-31T17:03:13.945Z,17.47
2019-01-31T17:05:43.536Z,18.53
2019-01-31T17:08:13.192Z,18.30
2019-01-31T17:10:42.765Z,18.37
2019-01-31T17:13:12.233Z,15.17
2019-01-31T17:15:41.735Z,16.83
2019-01-31T17:18:11.507Z,14.40
2019-01-31T17:20:45.491Z,14.93
2019-01-31T17:23:15.149Z,15.90
2019-01-31T17:25:44.638Z,15.07
2019-01-31T17:28:14.152Z,15.17
2019-01-31T17:30:43.611Z,14.37
2019-01-31T17:33:13.075Z,15.27
2019-01-31T17:35:42.575Z,18.10
2019-01-31T17:38:12.311Z,17.70
2019-01-31T17:40:42.846Z,20.07
2019-01-31T17:43:13.288Z,21.43
2019-01-31T17:45:43.087Z,21.37
2019-01-31T17:48:16.283Z,20.73
2019-01-31T17:50:46.587Z,15.63
2019-01-31T17:53:16.555Z,13.23
2019-01-31T17:55:46.156Z,14.37
2019-01-31T17:58:15.623Z,15.63
2019-01-31T18:00:48.632Z,13.90
2019-01-31T18:03:18.179Z,12.27
2019-01-31T18:05:47.711Z,12.57
2019-01-31T18:08:17.187Z,12.23
2019-01-31T18:10:46.704Z,11.83
2019-01-31T18:13:16.186Z,15.80
2019-01-31T18:15:45.657Z,13.93
2019-01-31T18:18:15.133Z,12.83
2019-01-31T18:20:44.640Z,12.67
2019-01-31T18:23:14.081Z,12.97
2019-01-31T18:25:43.934Z,16.13
2019-01-31T18:28:13.761Z,11.07
2019-01-31T18:30:43.555Z,30.77
2019-01-31T18:33:13.003Z,20.60
2019-01-31T18:35:42.477Z,12.47
2019-01-31T18:38:12.202Z,12.10
2019-01-31T18:40:41.675Z,12.47
2019-01-31T18:43:11.215Z,12.77
2019-01-31T18:45:40.766Z,14.68
2019-01-31T18:48:10.644Z,12.40
2019-01-31T18:50:42.543Z,13.73
2019-01-31T18:53:12.019Z,16.07
2019-01-31T18:55:41.484Z,16.33
2019-01-31T18:58:10.941Z,15.67
2019-01-31T19:00:51.080Z,18.37
2019-01-31T19:03:20.797Z,17.50
2019-01-31T19:05:50.481Z,15.40
2019-01-31T19:08:20.749Z,15.63
2019-01-31T19:10:50.531Z,14.30
2019-01-31T19:13:19.992Z,15.20
2019-01-31T19:15:49.853Z,15.50
2019-01-31T19:18:19.300Z,17.80
2019-01-31T19:20:48.811Z,13.23
2019-01-31T19:23:18.328Z,13.63
2019-01-31T19:25:47.755Z,11.30
2019-01-31T19:28:17.325Z,15.93
2019-01-31T19:30:47.066Z,11.40
2019-01-31T19:33:16.529Z,12.93
2019-01-31T19:35:46.135Z,13.27
2019-01-31T19:38:15.579Z,11.27
2019-01-31T19:40:46.475Z,9.37
2019-01-31T19:43:15.945Z,11.70
2019-01-31T19:45:50.132Z,10.67
2019-01-31T19:48:20.033Z,11.50
2019-01-31T19:50:49.535Z,11.00
2019-01-31T19:53:19.169Z,9.90
2019-01-31T19:55:48.703Z,9.53
2019-01-31T19:58:18.302Z,7.97
2019-01-31T20:00:47.927Z,11.77
2019-01-31T20:03:17.418Z,8.63
2019-01-31T20:05:47.130Z,10.50
2019-01-31T20:08:16.585Z,9.87
2019-01-31T20:10:46.169Z,11.17
2019-01-31T20:13:15.647Z,10.67
2019-01-31T20:15:45.095Z,11.47
2019-01-31T20:18:14.701Z,10.60
2019-01-31T20:20:44.258Z,9.33
2019-01-31T20:23:13.726Z,10.77
2019-01-31T20:25:43.502Z,10.10
2019-01-31T20:28:13.049Z,12.03
2019-01-31T20:30:42.509Z,12.23
2019-01-31T20:33:12.043Z,11.20
2019-01-31T20:35:41.577Z,9.90
2019-01-31T20:38:16.828Z,9.43
2019-01-31T20:40:46.595Z,8.73
2019-01-31T20:43:16.097Z,12.23
2019-01-31T20:45:45.531Z,10.03
2019-01-31T20:48:14.973Z,9.03
2019-01-31T20:50:44.432Z,10.13
2019-01-31T20:53:13.889Z,12.43
2019-01-31T20:55:43.361Z,8.97
2019-01-31T20:58:12.829Z,8.37
2019-01-31T21:00:46.851Z,10.53
2019-01-31T21:03:16.280Z,7.77
2019-01-31T21:05:45.724Z,14.57
2019-01-31T21:08:15.826Z,10.80
2019-01-31T21:10:45.848Z,11.03
2019-01-31T21:13:15.283Z,11.67
2019-01-31T21:15:44.764Z,12.13
2019-01-31T21:18:14.683Z,10.00
2019-01-31T21:20:44.163Z,11.67
2019-01-31T21:23:13.758Z,10.50
2019-01-31T21:25:43.217Z,12.93
2019-01-31T21:28:12.693Z,14.90
2019-01-31T21:30:42.710Z,14.07
2019-01-31T21:33:12.190Z,12.90
2019-01-31T21:35:41.867Z,11.43
2019-01-31T21:38:11.317Z,10.13
2019-01-31T21:40:41.134Z,10.17
2019-01-31T21:43:10.704Z,10.93
2019-01-31T21:45:40.465Z,10.53
2019-01-31T21:48:11.047Z,10.87
2019-01-31T21:50:40.484Z,10.90
2019-01-31T21:53:10.643Z,12.47
2019-01-31T21:55:40.079Z,10.87
2019-01-31T21:58:09.833Z,10.90
2019-01-31T22:00:39.485Z,8.87
2019-01-31T22:03:30.822Z,9.60
2019-01-31T22:06:01.339Z,8.53
2019-01-31T22:08:30.794Z,9.73
2019-01-31T22:11:01.439Z,11.13
2019-01-31T22:13:31.098Z,9.93
2019-01-31T22:16:00.516Z,10.63
2019-01-31T22:18:30.092Z,7.63
2019-01-31T22:20:59.617Z,8.10
2019-01-31T22:23:29.418Z,9.10
2019-01-31T22:25:58.874Z,7.10
2019-01-31T22:28:28.555Z,8.13
2019-01-31T22:30:58.043Z,8.87
2019-01-31T22:33:27.499Z,11.23
2019-01-31T22:35:57.051Z,8.70
2019-01-31T22:38:26.551Z,7.53
2019-01-31T22:40:56.075Z,8.13
2019-01-31T22:43:25.499Z,10.60
2019-01-31T22:45:55.284Z,8.27
2019-01-31T22:48:24.721Z,7.73
2019-01-31T22:50:54.609Z,8.63
2019-01-31T22:53:24.110Z,9.73
2019-01-31T22:55:53.519Z,7.63
2019-01-31T22:58:23.087Z,9.27
2019-01-31T23:01:27.375Z,9.07
2019-01-31T23:03:56.847Z,11.07
2019-01-31T23:06:26.820Z,8.70
2019-01-31T23:09:15.742Z,7.73
2019-01-31T23:11:45.236Z,12.63
2019-01-31T23:14:14.661Z,9.27
2019-01-31T23:16:44.607Z,10.43
2019-01-31T23:19:14.040Z,8.03
2019-01-31T23:21:43.495Z,8.87
2019-01-31T23:24:13.317Z,11.00
2019-01-31T23:26:42.806Z,10.00
2019-01-31T23:29:12.451Z,7.90
2019-01-31T23:31:41.890Z,8.03
2019-01-31T23:34:11.563Z,8.93
2019-01-31T23:36:41.065Z,10.97
2019-01-31T23:39:11.722Z,8.23
2019-01-31T23:41:41.176Z,11.10
2019-01-31T23:44:10.600Z,7.13
2019-01-31T23:46:40.071Z,9.07
2019-01-31T23:49:09.538Z,8.57
2019-01-31T23:51:39.422Z,8.60
2019-01-31T23:54:08.890Z,7.67
2019-01-31T23:56:38.348Z,8.10
2019-01-31T23:59:08.070Z,7.87
